KNSE/NSE METAR and TAF weather

Enter ICAO airport designator
Station Type Date Time Source
KNSE METAR 2024/04/18 08:23 UTC NOAA

KNSE 180823Z AUTO 15003KT 3/4SM BR VV015 18/17 A3007 RMK AO2 VIS 1/2V5 T01830172 $


Station Type Date Time Source
KNSE Decoded METAR 2024/04/18 08:23 UTC NOAA

MILTON WHITING FIELD (NORTH), FL, United States (KNSE) 30-44N 87-01W 60M
Apr 18, 2024 - 04:23 AM EDT / 2024.04.18 0823 UTC
Wind: from the SSE (150 degrees) at 3 MPH (3 KT):0
Visibility: 3/4 mile(s):0
Sky conditions: obscured
Weather: mist
Temperature: 64.9 F (18.3 C)
Dew Point: 63.0 F (17.2 C)
Relative Humidity: 93%
Pressure (altimeter): 30.07 in. Hg (1018 hPa)
ob: KNSE 180823Z AUTO 15003KT 3/4SM BR VV015 18/17 A3007 RMK AO2 VIS 1/2V5 T01830172
cycle: 8

Station Type Date Time Source
KNSE TAF 2024/04/18 23:33 UTC NOAA